sensor_id;sensor_type;location;lat;lon;timestamp;temperature;humidity
31819;DHT22;18384;48.860;9.188;2024-03-25T00:01:43;7.80;95.70
31819;DHT22;18384;48.860;9.188;2024-03-25T00:04:09;7.80;95.60
31819;DHT22;18384;48.860;9.188;2024-03-25T00:06:35;7.80;95.60
31819;DHT22;18384;48.860;9.188;2024-03-25T00:09:03;7.70;95.70
31819;DHT22;18384;48.860;9.188;2024-03-25T00:11:29;7.80;95.40
31819;DHT22;18384;48.860;9.188;2024-03-25T00:13:55;7.80;95.50
31819;DHT22;18384;48.860;9.188;2024-03-25T00:16:22;7.80;95.40
31819;DHT22;18384;48.860;9.188;2024-03-25T00:18:48;7.80;95.50
31819;DHT22;18384;48.860;9.188;2024-03-25T00:21:14;7.80;95.20
31819;DHT22;18384;48.860;9.188;2024-03-25T00:23:40;7.80;95.20
31819;DHT22;18384;48.860;9.188;2024-03-25T00:26:06;7.80;95.00
31819;DHT22;18384;48.860;9.188;2024-03-25T00:28:32;7.80;95.20
31819;DHT22;18384;48.860;9.188;2024-03-25T00:30:58;7.90;95.30
31819;DHT22;18384;48.860;9.188;2024-03-25T00:33:25;7.90;95.30
31819;DHT22;18384;48.860;9.188;2024-03-25T00:35:51;7.90;94.90
31819;DHT22;18384;48.860;9.188;2024-03-25T00:38:17;7.80;94.90
31819;DHT22;18384;48.860;9.188;2024-03-25T00:40:43;7.80;95.20
31819;DHT22;18384;48.860;9.188;2024-03-25T00:43:09;7.70;94.90
31819;DHT22;18384;48.860;9.188;2024-03-25T00:45:35;7.70;94.80
31819;DHT22;18384;48.860;9.188;2024-03-25T00:48:02;7.70;95.20
31819;DHT22;18384;48.860;9.188;2024-03-25T00:50:29;7.80;94.90
31819;DHT22;18384;48.860;9.188;2024-03-25T00:52:55;7.70;95.20
31819;DHT22;18384;48.860;9.188;2024-03-25T00:55:21;7.70;95.40
31819;DHT22;18384;48.860;9.188;2024-03-25T00:57:47;7.70;95.40
31819;DHT22;18384;48.860;9.188;2024-03-25T01:00:14;7.70;95.50
31819;DHT22;18384;48.860;9.188;2024-03-25T01:02:41;7.60;95.30
31819;DHT22;18384;48.860;9.188;2024-03-25T01:05:08;7.60;95.60
31819;DHT22;18384;48.860;9.188;2024-03-25T01:07:34;7.50;95.70
31819;DHT22;18384;48.860;9.188;2024-03-25T01:10:01;7.60;95.90
31819;DHT22;18384;48.860;9.188;2024-03-25T01:12:27;7.50;95.80
31819;DHT22;18384;48.860;9.188;2024-03-25T01:14:53;7.50;95.90
31819;DHT22;18384;48.860;9.188;2024-03-25T01:17:19;7.50;95.90
31819;DHT22;18384;48.860;9.188;2024-03-25T01:19:45;7.50;95.80
31819;DHT22;18384;48.860;9.188;2024-03-25T01:22:12;7.50;95.90
31819;DHT22;18384;48.860;9.188;2024-03-25T01:24:38;7.50;95.90
31819;DHT22;18384;48.860;9.188;2024-03-25T01:27:04;7.50;95.90
31819;DHT22;18384;48.860;9.188;2024-03-25T01:29:30;7.50;95.90
31819;DHT22;18384;48.860;9.188;2024-03-25T01:31:56;7.60;96.00
31819;DHT22;18384;48.860;9.188;2024-03-25T01:34:25;7.60;96.00
31819;DHT22;18384;48.860;9.188;2024-03-25T01:36:51;7.60;95.80
31819;DHT22;18384;48.860;9.188;2024-03-25T01:39:20;7.60;95.80
31819;DHT22;18384;48.860;9.188;2024-03-25T01:41:46;7.60;95.70
31819;DHT22;18384;48.860;9.188;2024-03-25T01:44:12;7.60;95.90
31819;DHT22;18384;48.860;9.188;2024-03-25T01:46:39;7.60;96.00
31819;DHT22;18384;48.860;9.188;2024-03-25T01:49:06;7.60;95.70
31819;DHT22;18384;48.860;9.188;2024-03-25T01:51:33;7.60;95.80
31819;DHT22;18384;48.860;9.188;2024-03-25T01:54:01;7.60;95.80
31819;DHT22;18384;48.860;9.188;2024-03-25T01:56:31;7.50;96.00
31819;DHT22;18384;48.860;9.188;2024-03-25T01:58:59;7.60;96.10
31819;DHT22;18384;48.860;9.188;2024-03-25T02:01:27;7.60;95.80
31819;DHT22;18384;48.860;9.188;2024-03-25T02:03:55;7.60;95.90
31819;DHT22;18384;48.860;9.188;2024-03-25T02:06:22;7.50;96.00
31819;DHT22;18384;48.860;9.188;2024-03-25T02:08:50;7.50;95.90
31819;DHT22;18384;48.860;9.188;2024-03-25T02:11:18;7.60;96.00
31819;DHT22;18384;48.860;9.188;2024-03-25T02:13:45;7.60;95.80
31819;DHT22;18384;48.860;9.188;2024-03-25T02:16:11;7.50;95.80
31819;DHT22;18384;48.860;9.188;2024-03-25T02:18:37;7.50;96.10
31819;DHT22;18384;48.860;9.188;2024-03-25T02:21:03;7.40;96.00
31819;DHT22;18384;48.860;9.188;2024-03-25T02:23:32;7.40;95.90
31819;DHT22;18384;48.860;9.188;2024-03-25T02:26:00;7.30;96.20
31819;DHT22;18384;48.860;9.188;2024-03-25T02:28:26;7.20;96.20
31819;DHT22;18384;48.860;9.188;2024-03-25T02:30:52;7.30;96.20
31819;DHT22;18384;48.860;9.188;2024-03-25T02:33:18;7.20;96.40
31819;DHT22;18384;48.860;9.188;2024-03-25T02:35:44;7.20;96.10
31819;DHT22;18384;48.860;9.188;2024-03-25T02:38:11;7.20;96.20
31819;DHT22;18384;48.860;9.188;2024-03-25T02:40:38;7.20;96.20
31819;DHT22;18384;48.860;9.188;2024-03-25T02:43:04;7.30;96.30
31819;DHT22;18384;48.860;9.188;2024-03-25T02:45:33;7.30;96.10
31819;DHT22;18384;48.860;9.188;2024-03-25T02:47:59;7.40;96.20
31819;DHT22;18384;48.860;9.188;2024-03-25T02:50:25;7.50;96.20
31819;DHT22;18384;48.860;9.188;2024-03-25T02:52:52;7.50;96.00
31819;DHT22;18384;48.860;9.188;2024-03-25T02:55:18;7.50;96.10
31819;DHT22;18384;48.860;9.188;2024-03-25T02:57:44;7.50;96.00
31819;DHT22;18384;48.860;9.188;2024-03-25T03:00:11;7.50;96.10
31819;DHT22;18384;48.860;9.188;2024-03-25T03:02:39;7.60;95.90
31819;DHT22;18384;48.860;9.188;2024-03-25T03:05:05;7.60;95.80
31819;DHT22;18384;48.860;9.188;2024-03-25T03:07:32;7.50;95.80
31819;DHT22;18384;48.860;9.188;2024-03-25T03:09:58;7.50;95.90
31819;DHT22;18384;48.860;9.188;2024-03-25T03:12:24;7.50;95.90
31819;DHT22;18384;48.860;9.188;2024-03-25T03:14:50;7.50;96.00
31819;DHT22;18384;48.860;9.188;2024-03-25T03:17:16;7.50;95.80
31819;DHT22;18384;48.860;9.188;2024-03-25T03:19:42;7.40;95.80
31819;DHT22;18384;48.860;9.188;2024-03-25T03:22:08;7.50;96.00
31819;DHT22;18384;48.860;9.188;2024-03-25T03:24:34;7.50;96.00
31819;DHT22;18384;48.860;9.188;2024-03-25T03:27:01;7.50;95.80
31819;DHT22;18384;48.860;9.188;2024-03-25T03:29:26;7.50;95.80
31819;DHT22;18384;48.860;9.188;2024-03-25T03:31:53;7.60;95.80
31819;DHT22;18384;48.860;9.188;2024-03-25T03:34:19;7.50;95.60
31819;DHT22;18384;48.860;9.188;2024-03-25T03:36:45;7.60;95.60
31819;DHT22;18384;48.860;9.188;2024-03-25T03:39:11;7.60;95.80
31819;DHT22;18384;48.860;9.188;2024-03-25T03:41:37;7.60;95.70
31819;DHT22;18384;48.860;9.188;2024-03-25T03:44:03;7.60;95.50
31819;DHT22;18384;48.860;9.188;2024-03-25T03:46:29;7.60;95.60
31819;DHT22;18384;48.860;9.188;2024-03-25T03:48:55;7.60;95.50
31819;DHT22;18384;48.860;9.188;2024-03-25T03:51:22;7.60;95.40
31819;DHT22;18384;48.860;9.188;2024-03-25T03:53:48;7.60;95.40
31819;DHT22;18384;48.860;9.188;2024-03-25T03:56:14;7.60;95.60
31819;DHT22;18384;48.860;9.188;2024-03-25T03:58:40;7.60;95.00
31819;DHT22;18384;48.860;9.188;2024-03-25T04:01:17;7.60;95.30
31819;DHT22;18384;48.860;9.188;2024-03-25T04:03:44;7.60;95.10
31819;DHT22;18384;48.860;9.188;2024-03-25T04:06:11;7.60;95.00
31819;DHT22;18384;48.860;9.188;2024-03-25T04:08:41;7.60;95.30
31819;DHT22;18384;48.860;9.188;2024-03-25T04:11:07;7.60;95.10
31819;DHT22;18384;48.860;9.188;2024-03-25T04:13:33;7.60;95.20
31819;DHT22;18384;48.860;9.188;2024-03-25T04:16:04;7.70;95.00
31819;DHT22;18384;48.860;9.188;2024-03-25T04:18:32;7.60;95.30
31819;DHT22;18384;48.860;9.188;2024-03-25T04:20:59;7.60;95.40
31819;DHT22;18384;48.860;9.188;2024-03-25T04:23:25;7.60;95.20
31819;DHT22;18384;48.860;9.188;2024-03-25T04:25:52;7.60;95.40
31819;DHT22;18384;48.860;9.188;2024-03-25T04:28:19;7.60;95.60
31819;DHT22;18384;48.860;9.188;2024-03-25T04:30:53;7.60;95.60
31819;DHT22;18384;48.860;9.188;2024-03-25T04:33:19;7.50;95.70
31819;DHT22;18384;48.860;9.188;2024-03-25T04:35:45;8.30;95.90
31819;DHT22;18384;48.860;9.188;2024-03-25T04:38:15;7.50;95.80
31819;DHT22;18384;48.860;9.188;2024-03-25T04:40:41;7.40;95.70
31819;DHT22;18384;48.860;9.188;2024-03-25T04:43:07;7.40;95.70
31819;DHT22;18384;48.860;9.188;2024-03-25T04:45:34;7.30;95.80
31819;DHT22;18384;48.860;9.188;2024-03-25T04:48:00;7.30;96.00
31819;DHT22;18384;48.860;9.188;2024-03-25T04:50:26;7.30;95.90
31819;DHT22;18384;48.860;9.188;2024-03-25T04:52:52;7.20;95.90
31819;DHT22;18384;48.860;9.188;2024-03-25T04:55:19;7.20;95.60
31819;DHT22;18384;48.860;9.188;2024-03-25T04:57:45;7.10;95.70
31819;DHT22;18384;48.860;9.188;2024-03-25T05:00:11;7.10;96.00
31819;DHT22;18384;48.860;9.188;2024-03-25T05:02:38;7.10;95.80
31819;DHT22;18384;48.860;9.188;2024-03-25T05:05:05;7.20;96.00
31819;DHT22;18384;48.860;9.188;2024-03-25T05:07:33;7.10;95.90
31819;DHT22;18384;48.860;9.188;2024-03-25T05:09:59;7.00;95.90
31819;DHT22;18384;48.860;9.188;2024-03-25T05:12:25;7.00;96.00
31819;DHT22;18384;48.860;9.188;2024-03-25T05:14:56;7.00;95.90
31819;DHT22;18384;48.860;9.188;2024-03-25T05:17:22;7.00;96.10
31819;DHT22;18384;48.860;9.188;2024-03-25T05:19:49;7.00;96.00
31819;DHT22;18384;48.860;9.188;2024-03-25T05:22:15;7.00;96.00
31819;DHT22;18384;48.860;9.188;2024-03-25T05:24:42;7.00;96.00
31819;DHT22;18384;48.860;9.188;2024-03-25T05:27:08;7.00;95.90
31819;DHT22;18384;48.860;9.188;2024-03-25T05:29:34;7.00;96.00
31819;DHT22;18384;48.860;9.188;2024-03-25T05:32:01;7.00;96.10
31819;DHT22;18384;48.860;9.188;2024-03-25T05:34:28;6.90;96.10
31819;DHT22;18384;48.860;9.188;2024-03-25T05:36:55;6.90;96.20
31819;DHT22;18384;48.860;9.188;2024-03-25T05:39:21;6.90;96.20
31819;DHT22;18384;48.860;9.188;2024-03-25T05:41:47;6.90;96.20
31819;DHT22;18384;48.860;9.188;2024-03-25T05:44:14;7.00;96.30
31819;DHT22;18384;48.860;9.188;2024-03-25T05:46:40;7.00;96.10
31819;DHT22;18384;48.860;9.188;2024-03-25T05:49:06;6.90;96.10
31819;DHT22;18384;48.860;9.188;2024-03-25T05:51:33;6.90;96.00
31819;DHT22;18384;48.860;9.188;2024-03-25T05:53:59;6.90;96.10
31819;DHT22;18384;48.860;9.188;2024-03-25T05:56:25;6.90;96.20
31819;DHT22;18384;48.860;9.188;2024-03-25T05:58:58;6.90;96.40
31819;DHT22;18384;48.860;9.188;2024-03-25T06:01:26;6.90;96.30
31819;DHT22;18384;48.860;9.188;2024-03-25T06:03:52;6.90;96.40
31819;DHT22;18384;48.860;9.188;2024-03-25T06:06:18;6.90;96.40
31819;DHT22;18384;48.860;9.188;2024-03-25T06:08:44;6.90;96.40
31819;DHT22;18384;48.860;9.188;2024-03-25T06:11:11;6.90;96.30
31819;DHT22;18384;48.860;9.188;2024-03-25T06:13:37;7.00;96.40
31819;DHT22;18384;48.860;9.188;2024-03-25T06:16:03;7.00;96.50
31819;DHT22;18384;48.860;9.188;2024-03-25T06:18:29;6.90;96.40
31819;DHT22;18384;48.860;9.188;2024-03-25T06:20:55;6.90;96.60
31819;DHT22;18384;48.860;9.188;2024-03-25T06:23:23;6.90;96.50
31819;DHT22;18384;48.860;9.188;2024-03-25T06:25:51;7.00;96.40
31819;DHT22;18384;48.860;9.188;2024-03-25T06:28:18;7.00;96.40
31819;DHT22;18384;48.860;9.188;2024-03-25T06:30:51;7.00;96.60
31819;DHT22;18384;48.860;9.188;2024-03-25T06:33:36;7.20;96.50
31819;DHT22;18384;48.860;9.188;2024-03-25T06:36:21;7.30;96.30
31819;DHT22;18384;48.860;9.188;2024-03-25T06:38:47;7.30;96.20
31819;DHT22;18384;48.860;9.188;2024-03-25T06:41:13;7.40;96.20
31819;DHT22;18384;48.860;9.188;2024-03-25T06:43:39;7.40;96.20
31819;DHT22;18384;48.860;9.188;2024-03-25T06:46:07;7.50;96.00
31819;DHT22;18384;48.860;9.188;2024-03-25T06:48:34;7.50;95.70
31819;DHT22;18384;48.860;9.188;2024-03-25T06:51:03;7.60;95.70
31819;DHT22;18384;48.860;9.188;2024-03-25T06:53:29;7.60;95.70
31819;DHT22;18384;48.860;9.188;2024-03-25T06:55:58;7.70;95.50
31819;DHT22;18384;48.860;9.188;2024-03-25T06:58:26;7.80;95.50
31819;DHT22;18384;48.860;9.188;2024-03-25T07:00:54;7.80;95.20
31819;DHT22;18384;48.860;9.188;2024-03-25T07:03:23;7.90;95.00
31819;DHT22;18384;48.860;9.188;2024-03-25T07:05:51;8.00;95.10
31819;DHT22;18384;48.860;9.188;2024-03-25T07:08:22;8.00;94.90
31819;DHT22;18384;48.860;9.188;2024-03-25T07:10:48;8.10;94.60
31819;DHT22;18384;48.860;9.188;2024-03-25T07:13:14;8.20;94.90
31819;DHT22;18384;48.860;9.188;2024-03-25T07:15:42;8.20;94.70
31819;DHT22;18384;48.860;9.188;2024-03-25T07:18:09;8.20;94.30
31819;DHT22;18384;48.860;9.188;2024-03-25T07:20:36;8.20;94.50
31819;DHT22;18384;48.860;9.188;2024-03-25T07:23:03;8.20;94.40
31819;DHT22;18384;48.860;9.188;2024-03-25T07:25:29;8.20;94.30
31819;DHT22;18384;48.860;9.188;2024-03-25T07:27:56;8.20;94.60
31819;DHT22;18384;48.860;9.188;2024-03-25T07:30:22;8.30;94.80
31819;DHT22;18384;48.860;9.188;2024-03-25T07:32:55;8.30;94.10
31819;DHT22;18384;48.860;9.188;2024-03-25T07:35:21;8.40;94.30
31819;DHT22;18384;48.860;9.188;2024-03-25T07:37:48;8.40;94.10
31819;DHT22;18384;48.860;9.188;2024-03-25T07:40:17;8.40;94.00
31819;DHT22;18384;48.860;9.188;2024-03-25T07:42:43;8.50;93.50
31819;DHT22;18384;48.860;9.188;2024-03-25T07:45:09;8.50;93.50
31819;DHT22;18384;48.860;9.188;2024-03-25T07:47:36;8.60;94.10
31819;DHT22;18384;48.860;9.188;2024-03-25T07:50:02;8.60;93.40
31819;DHT22;18384;48.860;9.188;2024-03-25T07:52:29;8.70;93.50
31819;DHT22;18384;48.860;9.188;2024-03-25T07:54:55;8.80;94.00
31819;DHT22;18384;48.860;9.188;2024-03-25T07:57:21;8.80;93.30
31819;DHT22;18384;48.860;9.188;2024-03-25T07:59:47;8.90;92.40
31819;DHT22;18384;48.860;9.188;2024-03-25T08:02:14;9.10;92.60
31819;DHT22;18384;48.860;9.188;2024-03-25T08:04:40;9.10;92.70
31819;DHT22;18384;48.860;9.188;2024-03-25T08:07:06;9.20;92.40
31819;DHT22;18384;48.860;9.188;2024-03-25T08:09:32;9.30;92.10
31819;DHT22;18384;48.860;9.188;2024-03-25T08:11:58;9.30;92.00
31819;DHT22;18384;48.860;9.188;2024-03-25T08:14:24;9.30;91.70
31819;DHT22;18384;48.860;9.188;2024-03-25T08:16:51;9.40;91.80
31819;DHT22;18384;48.860;9.188;2024-03-25T08:19:17;9.40;92.10
31819;DHT22;18384;48.860;9.188;2024-03-25T08:21:43;9.30;91.10
31819;DHT22;18384;48.860;9.188;2024-03-25T08:24:09;9.30;89.00
31819;DHT22;18384;48.860;9.188;2024-03-25T08:26:35;9.30;86.70
31819;DHT22;18384;48.860;9.188;2024-03-25T08:29:01;9.30;89.30
31819;DHT22;18384;48.860;9.188;2024-03-25T08:31:28;9.30;87.50
31819;DHT22;18384;48.860;9.188;2024-03-25T08:33:54;9.30;86.30
31819;DHT22;18384;48.860;9.188;2024-03-25T08:36:20;9.20;86.90
31819;DHT22;18384;48.860;9.188;2024-03-25T08:38:46;9.10;89.30
31819;DHT22;18384;48.860;9.188;2024-03-25T08:41:12;9.20;88.90
31819;DHT22;18384;48.860;9.188;2024-03-25T08:43:40;9.20;87.60
31819;DHT22;18384;48.860;9.188;2024-03-25T08:46:06;9.30;88.20
31819;DHT22;18384;48.860;9.188;2024-03-25T08:48:33;9.40;88.20
31819;DHT22;18384;48.860;9.188;2024-03-25T08:50:59;9.50;87.80
31819;DHT22;18384;48.860;9.188;2024-03-25T08:53:25;9.60;87.70
31819;DHT22;18384;48.860;9.188;2024-03-25T08:55:51;9.70;84.60
31819;DHT22;18384;48.860;9.188;2024-03-25T08:58:17;9.70;84.60
31819;DHT22;18384;48.860;9.188;2024-03-25T09:00:43;9.80;85.90
31819;DHT22;18384;48.860;9.188;2024-03-25T09:03:09;9.90;84.40
31819;DHT22;18384;48.860;9.188;2024-03-25T09:05:36;9.90;84.80
31819;DHT22;18384;48.860;9.188;2024-03-25T09:08:08;9.90;84.50
31819;DHT22;18384;48.860;9.188;2024-03-25T09:10:37;9.80;84.00
31819;DHT22;18384;48.860;9.188;2024-03-25T09:13:21;9.80;83.10
31819;DHT22;18384;48.860;9.188;2024-03-25T09:15:50;9.90;83.00
31819;DHT22;18384;48.860;9.188;2024-03-25T09:18:16;9.90;84.60
31819;DHT22;18384;48.860;9.188;2024-03-25T09:20:44;10.00;83.10
31819;DHT22;18384;48.860;9.188;2024-03-25T09:23:10;10.00;82.70
31819;DHT22;18384;48.860;9.188;2024-03-25T09:25:36;10.00;82.40
31819;DHT22;18384;48.860;9.188;2024-03-25T09:28:02;10.20;83.40
31819;DHT22;18384;48.860;9.188;2024-03-25T09:30:28;10.20;81.70
31819;DHT22;18384;48.860;9.188;2024-03-25T09:32:54;10.20;82.70
31819;DHT22;18384;48.860;9.188;2024-03-25T09:35:21;10.40;80.60
31819;DHT22;18384;48.860;9.188;2024-03-25T09:37:47;10.30;80.60
31819;DHT22;18384;48.860;9.188;2024-03-25T09:40:13;10.30;80.00
31819;DHT22;18384;48.860;9.188;2024-03-25T09:42:59;10.30;81.40
31819;DHT22;18384;48.860;9.188;2024-03-25T09:45:29;10.30;82.40
31819;DHT22;18384;48.860;9.188;2024-03-25T09:47:56;10.40;82.20
31819;DHT22;18384;48.860;9.188;2024-03-25T09:50:22;10.30;79.40
31819;DHT22;18384;48.860;9.188;2024-03-25T09:52:49;10.30;80.20
31819;DHT22;18384;48.860;9.188;2024-03-25T09:55:16;10.20;81.80
31819;DHT22;18384;48.860;9.188;2024-03-25T09:57:43;10.30;82.00
31819;DHT22;18384;48.860;9.188;2024-03-25T10:00:11;10.30;80.40
31819;DHT22;18384;48.860;9.188;2024-03-25T10:02:39;10.30;78.20
31819;DHT22;18384;48.860;9.188;2024-03-25T10:05:06;10.30;76.60
31819;DHT22;18384;48.860;9.188;2024-03-25T10:07:33;10.40;75.20
31819;DHT22;18384;48.860;9.188;2024-03-25T10:10:05;11.30;77.50
31819;DHT22;18384;48.860;9.188;2024-03-25T10:12:33;10.40;76.20
31819;DHT22;18384;48.860;9.188;2024-03-25T10:15:01;10.50;75.00
31819;DHT22;18384;48.860;9.188;2024-03-25T10:17:27;10.60;74.70
31819;DHT22;18384;48.860;9.188;2024-03-25T10:19:56;10.50;73.50
31819;DHT22;18384;48.860;9.188;2024-03-25T10:22:23;10.50;74.90
31819;DHT22;18384;48.860;9.188;2024-03-25T10:24:49;10.50;74.70
31819;DHT22;18384;48.860;9.188;2024-03-25T10:27:23;10.50;76.90
31819;DHT22;18384;48.860;9.188;2024-03-25T10:29:53;10.60;76.30
31819;DHT22;18384;48.860;9.188;2024-03-25T10:32:22;10.60;78.40
31819;DHT22;18384;48.860;9.188;2024-03-25T10:34:54;10.70;75.10
31819;DHT22;18384;48.860;9.188;2024-03-25T10:37:21;10.70;75.80
31819;DHT22;18384;48.860;9.188;2024-03-25T10:39:55;10.60;70.30
31819;DHT22;18384;48.860;9.188;2024-03-25T10:42:22;10.50;74.60
31819;DHT22;18384;48.860;9.188;2024-03-25T10:44:49;10.60;74.40
31819;DHT22;18384;48.860;9.188;2024-03-25T10:47:25;10.70;76.60
31819;DHT22;18384;48.860;9.188;2024-03-25T10:49:58;10.80;76.10
31819;DHT22;18384;48.860;9.188;2024-03-25T10:52:26;10.80;75.60
31819;DHT22;18384;48.860;9.188;2024-03-25T10:54:55;11.00;75.80
31819;DHT22;18384;48.860;9.188;2024-03-25T10:57:22;11.00;74.60
31819;DHT22;18384;48.860;9.188;2024-03-25T10:59:49;11.00;75.10
31819;DHT22;18384;48.860;9.188;2024-03-25T11:02:15;11.00;73.30
31819;DHT22;18384;48.860;9.188;2024-03-25T11:04:43;11.10;73.50
31819;DHT22;18384;48.860;9.188;2024-03-25T11:07:14;11.10;73.60
31819;DHT22;18384;48.860;9.188;2024-03-25T11:09:41;11.10;73.60
31819;DHT22;18384;48.860;9.188;2024-03-25T11:12:11;12.10;76.30
31819;DHT22;18384;48.860;9.188;2024-03-25T11:14:39;11.40;74.20
31819;DHT22;18384;48.860;9.188;2024-03-25T11:17:16;11.50;73.30
31819;DHT22;18384;48.860;9.188;2024-03-25T11:19:42;11.50;72.90
31819;DHT22;18384;48.860;9.188;2024-03-25T11:22:09;11.40;72.80
31819;DHT22;18384;48.860;9.188;2024-03-25T11:24:37;11.40;72.60
31819;DHT22;18384;48.860;9.188;2024-03-25T11:27:07;11.40;75.90
31819;DHT22;18384;48.860;9.188;2024-03-25T11:29:34;11.40;76.60
31819;DHT22;18384;48.860;9.188;2024-03-25T11:32:03;11.60;74.60
31819;DHT22;18384;48.860;9.188;2024-03-25T11:34:30;11.80;74.20
31819;DHT22;18384;48.860;9.188;2024-03-25T11:36:56;11.90;74.90
31819;DHT22;18384;48.860;9.188;2024-03-25T11:39:23;11.90;75.50
31819;DHT22;18384;48.860;9.188;2024-03-25T11:41:52;12.00;75.10
31819;DHT22;18384;48.860;9.188;2024-03-25T11:44:18;12.00;75.30
31819;DHT22;18384;48.860;9.188;2024-03-25T11:46:44;12.10;73.30
31819;DHT22;18384;48.860;9.188;2024-03-25T11:49:15;12.20;77.10
31819;DHT22;18384;48.860;9.188;2024-03-25T11:51:44;12.30;75.40
31819;DHT22;18384;48.860;9.188;2024-03-25T11:54:12;12.40;75.10
31819;DHT22;18384;48.860;9.188;2024-03-25T11:56:39;12.40;74.10
31819;DHT22;18384;48.860;9.188;2024-03-25T11:59:05;12.30;72.50
31819;DHT22;18384;48.860;9.188;2024-03-25T12:01:32;12.30;72.50
31819;DHT22;18384;48.860;9.188;2024-03-25T12:04:11;12.20;73.30
31819;DHT22;18384;48.860;9.188;2024-03-25T12:06:37;12.10;74.80
31819;DHT22;18384;48.860;9.188;2024-03-25T12:09:03;12.10;73.40
31819;DHT22;18384;48.860;9.188;2024-03-25T12:11:48;12.00;72.70
31819;DHT22;18384;48.860;9.188;2024-03-25T12:14:14;11.90;72.60
31819;DHT22;18384;48.860;9.188;2024-03-25T12:16:41;11.80;72.60
31819;DHT22;18384;48.860;9.188;2024-03-25T12:19:08;11.70;72.50
31819;DHT22;18384;48.860;9.188;2024-03-25T12:21:34;11.60;72.60
31819;DHT22;18384;48.860;9.188;2024-03-25T12:24:00;11.60;74.30
31819;DHT22;18384;48.860;9.188;2024-03-25T12:26:26;11.70;74.80
31819;DHT22;18384;48.860;9.188;2024-03-25T12:28:52;11.70;76.40
31819;DHT22;18384;48.860;9.188;2024-03-25T12:31:18;11.80;74.40
31819;DHT22;18384;48.860;9.188;2024-03-25T12:33:44;11.80;74.60
31819;DHT22;18384;48.860;9.188;2024-03-25T12:36:13;11.70;76.20
31819;DHT22;18384;48.860;9.188;2024-03-25T12:38:40;11.70;74.10
31819;DHT22;18384;48.860;9.188;2024-03-25T12:41:12;11.50;74.10
31819;DHT22;18384;48.860;9.188;2024-03-25T12:43:44;11.50;75.10
31819;DHT22;18384;48.860;9.188;2024-03-25T12:46:11;11.50;74.90
31819;DHT22;18384;48.860;9.188;2024-03-25T12:48:38;11.40;74.80
31819;DHT22;18384;48.860;9.188;2024-03-25T12:51:12;11.50;75.50
31819;DHT22;18384;48.860;9.188;2024-03-25T12:53:39;11.40;75.20
31819;DHT22;18384;48.860;9.188;2024-03-25T12:56:06;11.50;75.80
31819;DHT22;18384;48.860;9.188;2024-03-25T12:58:32;11.50;76.80
31819;DHT22;18384;48.860;9.188;2024-03-25T13:00:58;11.50;75.30
31819;DHT22;18384;48.860;9.188;2024-03-25T13:03:24;11.50;75.50
31819;DHT22;18384;48.860;9.188;2024-03-25T13:05:50;11.50;77.30
31819;DHT22;18384;48.860;9.188;2024-03-25T13:08:16;11.50;75.40
31819;DHT22;18384;48.860;9.188;2024-03-25T13:10:43;11.60;75.90
31819;DHT22;18384;48.860;9.188;2024-03-25T13:13:09;11.70;76.70
31819;DHT22;18384;48.860;9.188;2024-03-25T13:15:35;11.80;75.30
31819;DHT22;18384;48.860;9.188;2024-03-25T13:18:01;12.20;74.80
31819;DHT22;18384;48.860;9.188;2024-03-25T13:20:27;11.80;75.60
31819;DHT22;18384;48.860;9.188;2024-03-25T13:22:54;11.90;76.20
31819;DHT22;18384;48.860;9.188;2024-03-25T13:25:25;11.90;76.70
31819;DHT22;18384;48.860;9.188;2024-03-25T13:27:53;12.00;75.90
31819;DHT22;18384;48.860;9.188;2024-03-25T13:30:19;12.10;74.80
31819;DHT22;18384;48.860;9.188;2024-03-25T13:32:45;12.00;75.20
31819;DHT22;18384;48.860;9.188;2024-03-25T13:35:11;11.90;74.90
31819;DHT22;18384;48.860;9.188;2024-03-25T13:37:37;11.90;73.90
31819;DHT22;18384;48.860;9.188;2024-03-25T13:40:04;11.80;74.70
31819;DHT22;18384;48.860;9.188;2024-03-25T13:42:31;11.80;74.00
31819;DHT22;18384;48.860;9.188;2024-03-25T13:44:57;11.80;73.90
31819;DHT22;18384;48.860;9.188;2024-03-25T13:47:23;11.80;75.80
31819;DHT22;18384;48.860;9.188;2024-03-25T13:49:50;11.90;75.10
31819;DHT22;18384;48.860;9.188;2024-03-25T13:52:26;11.90;74.30
31819;DHT22;18384;48.860;9.188;2024-03-25T13:54:52;11.90;75.50
31819;DHT22;18384;48.860;9.188;2024-03-25T13:57:18;11.90;75.00
31819;DHT22;18384;48.860;9.188;2024-03-25T13:59:44;11.90;72.20
31819;DHT22;18384;48.860;9.188;2024-03-25T14:02:10;11.90;73.30
31819;DHT22;18384;48.860;9.188;2024-03-25T14:04:36;11.90;71.60
31819;DHT22;18384;48.860;9.188;2024-03-25T14:07:02;11.80;72.30
31819;DHT22;18384;48.860;9.188;2024-03-25T14:09:28;11.80;71.80
31819;DHT22;18384;48.860;9.188;2024-03-25T14:11:55;11.90;72.90
31819;DHT22;18384;48.860;9.188;2024-03-25T14:14:21;11.90;73.40
31819;DHT22;18384;48.860;9.188;2024-03-25T14:16:47;11.90;73.50
31819;DHT22;18384;48.860;9.188;2024-03-25T14:19:13;12.00;74.20
31819;DHT22;18384;48.860;9.188;2024-03-25T14:21:39;12.00;74.10
31819;DHT22;18384;48.860;9.188;2024-03-25T14:24:06;11.90;72.10
31819;DHT22;18384;48.860;9.188;2024-03-25T14:26:33;11.80;72.30
31819;DHT22;18384;48.860;9.188;2024-03-25T14:29:00;11.90;72.90
31819;DHT22;18384;48.860;9.188;2024-03-25T14:31:27;11.80;72.30
31819;DHT22;18384;48.860;9.188;2024-03-25T14:33:55;11.90;72.50
31819;DHT22;18384;48.860;9.188;2024-03-25T14:36:21;12.00;72.90
31819;DHT22;18384;48.860;9.188;2024-03-25T14:38:48;12.00;71.80
31819;DHT22;18384;48.860;9.188;2024-03-25T14:41:19;12.00;72.00
31819;DHT22;18384;48.860;9.188;2024-03-25T14:43:46;11.90;72.70
31819;DHT22;18384;48.860;9.188;2024-03-25T14:46:14;12.00;71.60
31819;DHT22;18384;48.860;9.188;2024-03-25T14:48:40;11.90;72.30
31819;DHT22;18384;48.860;9.188;2024-03-25T14:51:06;11.90;71.70
31819;DHT22;18384;48.860;9.188;2024-03-25T14:53:32;12.00;71.90
31819;DHT22;18384;48.860;9.188;2024-03-25T14:55:58;11.90;72.90
31819;DHT22;18384;48.860;9.188;2024-03-25T14:58:24;12.00;71.90
31819;DHT22;18384;48.860;9.188;2024-03-25T15:00:50;12.00;72.20
31819;DHT22;18384;48.860;9.188;2024-03-25T15:03:16;12.00;72.30
31819;DHT22;18384;48.860;9.188;2024-03-25T15:05:43;12.00;71.70
31819;DHT22;18384;48.860;9.188;2024-03-25T15:08:09;12.00;72.70
31819;DHT22;18384;48.860;9.188;2024-03-25T15:10:35;12.00;72.50
31819;DHT22;18384;48.860;9.188;2024-03-25T15:13:01;11.90;72.30
31819;DHT22;18384;48.860;9.188;2024-03-25T15:15:27;12.00;72.50
31819;DHT22;18384;48.860;9.188;2024-03-25T15:17:53;11.90;72.50
31819;DHT22;18384;48.860;9.188;2024-03-25T15:20:20;11.90;73.00
31819;DHT22;18384;48.860;9.188;2024-03-25T15:22:46;11.90;71.50
31819;DHT22;18384;48.860;9.188;2024-03-25T15:25:12;11.90;72.20
31819;DHT22;18384;48.860;9.188;2024-03-25T15:27:38;11.80;73.20
31819;DHT22;18384;48.860;9.188;2024-03-25T15:30:05;11.90;73.00
31819;DHT22;18384;48.860;9.188;2024-03-25T15:32:32;11.90;72.40
31819;DHT22;18384;48.860;9.188;2024-03-25T15:34:58;11.90;72.40
31819;DHT22;18384;48.860;9.188;2024-03-25T15:37:25;11.90;73.10
31819;DHT22;18384;48.860;9.188;2024-03-25T15:39:51;11.90;73.20